createdAt,value
2018-09-19T00:00:26.596Z,17.67
2018-09-19T00:02:55.023Z,17.68
2018-09-19T00:05:24.246Z,17.63
2018-09-19T00:07:53.538Z,17.61
2018-09-19T00:10:23.713Z,17.61
2018-09-19T00:12:53.167Z,17.60
2018-09-19T00:15:22.162Z,17.59
2018-09-19T00:17:51.219Z,17.58
2018-09-19T00:20:20.981Z,17.56
2018-09-19T00:22:49.696Z,17.55
2018-09-19T00:25:19.044Z,17.52
2018-09-19T00:27:48.498Z,17.52
2018-09-19T00:30:17.234Z,17.51
2018-09-19T00:32:46.163Z,17.49
2018-09-19T00:35:17.019Z,17.50
2018-09-19T00:37:46.104Z,17.48
2018-09-19T00:40:15.645Z,17.47
2018-09-19T00:42:44.446Z,17.45
2018-09-19T00:45:14.157Z,17.44
2018-09-19T00:47:43.878Z,17.42
2018-09-19T00:50:12.329Z,17.42
2018-09-19T00:52:41.716Z,17.41
2018-09-19T00:55:10.895Z,17.39
2018-09-19T00:57:39.699Z,17.39
2018-09-19T01:00:09.404Z,17.39
2018-09-19T01:02:38.535Z,17.36
2018-09-19T01:05:07.985Z,17.35
2018-09-19T01:07:37.729Z,17.32
2018-09-19T01:10:06.916Z,17.31
2018-09-19T01:12:35.629Z,17.31
2018-09-19T01:15:04.656Z,17.29
2018-09-19T01:17:33.544Z,17.31
2018-09-19T01:20:03.188Z,17.32
2018-09-19T01:22:32.736Z,17.33
2018-09-19T01:25:01.403Z,17.35
2018-09-19T01:27:30.828Z,17.37
2018-09-19T01:29:59.940Z,17.39
2018-09-19T01:32:28.487Z,17.38
2018-09-19T01:34:57.400Z,17.39
2018-09-19T01:37:26.879Z,17.40
2018-09-19T01:39:55.471Z,17.41
2018-09-19T01:42:24.586Z,17.41
2018-09-19T01:44:54.035Z,17.41
2018-09-19T01:47:23.289Z,17.41
2018-09-19T01:49:53.865Z,17.41
2018-09-19T01:52:22.970Z,17.39
2018-09-19T01:54:51.513Z,17.38
2018-09-19T01:57:20.769Z,17.39
2018-09-19T01:59:50.494Z,17.36
2018-09-19T02:02:19.420Z,17.35
2018-09-19T02:04:49.586Z,17.34
2018-09-19T02:07:19.091Z,17.32
2018-09-19T02:09:47.782Z,17.29
2018-09-19T02:12:17.334Z,17.27
2018-09-19T02:14:46.563Z,17.25
2018-09-19T02:17:15.165Z,17.21
2018-09-19T02:19:44.849Z,17.17
2018-09-19T02:22:13.952Z,17.11
2018-09-19T02:24:42.844Z,17.06
2018-09-19T02:27:11.907Z,17.00
2018-09-19T02:29:41.128Z,16.94
2018-09-19T02:32:09.776Z,16.91
2018-09-19T02:34:39.055Z,16.87
2018-09-19T02:37:08.572Z,16.87
2018-09-19T02:39:37.199Z,16.86
2018-09-19T02:42:07.185Z,16.90
2018-09-19T02:44:36.316Z,16.92
2018-09-19T02:47:04.897Z,16.96
2018-09-19T02:49:34.544Z,17.00
2018-09-19T02:52:03.934Z,17.03
2018-09-19T02:54:32.476Z,17.06
2018-09-19T02:57:01.533Z,17.06
2018-09-19T02:59:30.789Z,17.05
2018-09-19T03:01:59.367Z,17.03
2018-09-19T03:04:28.600Z,17.05
2018-09-19T03:06:58.348Z,17.04
2018-09-19T03:09:26.927Z,17.03
2018-09-19T03:11:56.155Z,17.02
2018-09-19T03:14:25.328Z,17.03
2018-09-19T03:16:54.544Z,17.04
2018-09-19T03:19:24.892Z,16.99
2018-09-19T03:21:54.351Z,16.95
2018-09-19T03:24:22.867Z,16.93
2018-09-19T03:26:51.976Z,16.87
2018-09-19T03:29:21.289Z,16.86
2018-09-19T03:31:50.025Z,16.84
2018-09-19T03:34:19.132Z,16.82
2018-09-19T03:36:48.232Z,16.79
2018-09-19T03:39:16.738Z,16.78
2018-09-19T03:41:45.737Z,16.77
2018-09-19T03:44:14.632Z,16.75
2018-09-19T03:46:43.728Z,16.75
2018-09-19T03:49:12.575Z,16.72
2018-09-19T03:51:41.774Z,16.72
2018-09-19T03:54:11.400Z,16.72
2018-09-19T03:56:40.367Z,16.75
2018-09-19T03:59:09.819Z,16.73
2018-09-19T04:01:38.366Z,16.74
2018-09-19T04:04:06.916Z,16.74
2018-09-19T04:06:36.231Z,16.73
2018-09-19T04:09:08.761Z,16.74
2018-09-19T04:11:38.044Z,16.73
2018-09-19T04:14:07.679Z,16.72
2018-09-19T04:16:36.702Z,16.73
2018-09-19T04:19:06.368Z,16.74
2018-09-19T04:21:35.358Z,16.74
2018-09-19T04:24:04.771Z,16.78
2018-09-19T04:26:33.873Z,16.83
2018-09-19T04:29:02.594Z,16.86
2018-09-19T04:31:31.625Z,16.89
2018-09-19T04:34:00.911Z,16.91
2018-09-19T04:36:29.559Z,16.90
2018-09-19T04:38:59.227Z,16.92
2018-09-19T04:41:28.451Z,16.96
2018-09-19T04:43:57.052Z,17.00
2018-09-19T04:46:26.389Z,17.05
2018-09-19T04:48:55.581Z,17.08
2018-09-19T04:51:24.288Z,17.12
2018-09-19T04:53:52.846Z,17.15
2018-09-19T04:56:23.347Z,17.19
2018-09-19T04:58:51.932Z,17.23
2018-09-19T05:01:21.363Z,17.27
2018-09-19T05:03:50.723Z,17.28
2018-09-19T05:06:19.412Z,17.29
2018-09-19T05:08:47.954Z,17.31
2018-09-19T05:11:17.400Z,17.34
2018-09-19T05:13:46.692Z,17.33
2018-09-19T05:16:15.330Z,17.33
2018-09-19T05:18:46.043Z,17.32
2018-09-19T05:21:14.964Z,17.31
2018-09-19T05:23:43.916Z,17.32
2018-09-19T05:26:13.368Z,17.31
2018-09-19T05:28:42.416Z,17.31
2018-09-19T05:31:11.075Z,17.32
2018-09-19T05:33:40.222Z,17.31
2018-09-19T05:36:09.406Z,17.29
2018-09-19T05:38:38.173Z,17.32
2018-09-19T05:41:07.519Z,17.32
2018-09-19T05:43:36.672Z,17.32
2018-09-19T05:46:05.859Z,17.33
2018-09-19T05:48:34.965Z,17.32
2018-09-19T05:51:04.728Z,17.32
2018-09-19T05:53:33.319Z,17.32
2018-09-19T05:56:02.283Z,17.33
2018-09-19T05:58:32.223Z,17.33
2018-09-19T06:01:00.809Z,17.32
2018-09-19T06:03:30.345Z,17.32
2018-09-19T06:05:59.215Z,17.33
2018-09-19T06:08:27.717Z,17.33
2018-09-19T06:10:56.885Z,17.35
2018-09-19T06:13:26.046Z,17.37
2018-09-19T06:15:54.649Z,17.39
2018-09-19T06:18:23.144Z,17.42
2018-09-19T06:20:52.802Z,17.42
2018-09-19T06:23:21.811Z,17.44
2018-09-19T06:25:50.894Z,17.47
2018-09-19T06:28:20.584Z,17.50
2018-09-19T06:30:49.364Z,17.54
2018-09-19T06:33:18.752Z,17.59
2018-09-19T06:35:47.739Z,17.66
2018-09-19T06:38:16.879Z,17.73
2018-09-19T06:40:45.651Z,17.83
2018-09-19T06:43:14.760Z,17.97
2018-09-19T06:45:44.186Z,18.11
2018-09-19T06:48:13.257Z,18.23
2018-09-19T06:50:42.217Z,18.35
2018-09-19T06:53:10.936Z,18.43
2018-09-19T06:55:40.616Z,18.47
2018-09-19T06:58:09.930Z,18.59
2018-09-19T07:00:39.143Z,18.71
2018-09-19T07:03:08.004Z,18.84
2018-09-19T07:05:37.395Z,18.95
2018-09-19T07:08:06.330Z,19.14
2018-09-19T07:10:35.564Z,19.27
2018-09-19T07:13:04.683Z,19.38
2018-09-19T07:15:33.956Z,19.53
2018-09-19T07:18:03.142Z,19.70
2018-09-19T07:20:32.375Z,19.79
2018-09-19T07:23:01.656Z,19.91
2018-09-19T07:25:30.263Z,20.02
2018-09-19T07:27:59.694Z,20.18
2018-09-19T07:30:29.138Z,20.30
2018-09-19T07:32:58.125Z,20.40
2018-09-19T07:35:27.354Z,20.56
2018-09-19T07:37:56.881Z,20.61
2018-09-19T07:40:26.281Z,20.65
2018-09-19T07:42:55.455Z,20.77
2018-09-19T07:45:24.149Z,20.80
2018-09-19T07:47:53.136Z,20.88
2018-09-19T07:50:22.321Z,21.00
2018-09-19T07:52:52.170Z,21.09
2018-09-19T07:55:21.427Z,21.20
2018-09-19T07:57:50.465Z,21.28
2018-09-19T08:00:19.122Z,21.42
2018-09-19T08:02:48.190Z,21.53
2018-09-19T08:05:17.508Z,21.67
2018-09-19T08:07:46.171Z,21.81
2018-09-19T08:10:15.996Z,21.90
2018-09-19T08:12:45.379Z,22.02
2018-09-19T08:15:13.924Z,22.14
2018-09-19T08:17:42.669Z,22.24
2018-09-19T08:20:11.878Z,22.37
2018-09-19T08:22:40.615Z,22.43
2018-09-19T08:25:09.728Z,22.44
2018-09-19T08:27:39.416Z,22.51
2018-09-19T08:30:08.024Z,22.57
2018-09-19T08:32:38.030Z,22.62
2018-09-19T08:35:07.708Z,22.70
2018-09-19T08:37:36.290Z,22.88
2018-09-19T08:40:07.470Z,23.01
2018-09-19T08:42:36.012Z,23.18
2018-09-19T08:45:04.703Z,23.16
2018-09-19T08:47:33.764Z,23.16
2018-09-19T08:50:04.440Z,23.19
2018-09-19T08:52:34.049Z,23.20
2018-09-19T08:55:04.925Z,23.12
2018-09-19T08:57:34.203Z,23.06
2018-09-19T09:00:03.624Z,23.01
2018-09-19T09:02:32.170Z,23.08
2018-09-19T09:05:01.883Z,23.11
2018-09-19T09:07:30.980Z,23.18
2018-09-19T09:09:59.523Z,23.28
2018-09-19T09:12:28.879Z,23.38
2018-09-19T09:14:57.845Z,23.55
2018-09-19T09:17:26.592Z,23.79
2018-09-19T09:19:56.316Z,24.05
2018-09-19T09:22:25.778Z,24.22
2018-09-19T09:24:54.340Z,24.16
2018-09-19T09:27:23.410Z,24.01
2018-09-19T09:29:52.802Z,23.80
2018-09-19T09:32:22.123Z,23.56
2018-09-19T09:34:51.294Z,23.53
2018-09-19T09:37:20.428Z,23.61
2018-09-19T09:39:49.466Z,23.76
2018-09-19T09:42:18.041Z,24.08
2018-09-19T09:44:46.988Z,24.31
2018-09-19T09:47:16.422Z,24.55
2018-09-19T09:49:45.032Z,24.82
2018-09-19T09:52:13.859Z,24.86
2018-09-19T09:54:42.898Z,24.74
2018-09-19T09:57:12.135Z,24.43
2018-09-19T09:59:41.224Z,24.23
2018-09-19T10:02:10.536Z,24.11
2018-09-19T10:04:39.581Z,23.91
2018-09-19T10:07:08.434Z,23.74
2018-09-19T10:09:37.816Z,23.69
2018-09-19T10:12:07.205Z,23.80
2018-09-19T10:14:36.309Z,23.80
2018-09-19T10:17:06.298Z,23.74
2018-09-19T10:19:35.138Z,23.81
2018-09-19T10:22:04.549Z,23.85
2018-09-19T10:24:33.965Z,23.88
2018-09-19T10:27:03.389Z,24.00
2018-09-19T10:29:32.296Z,24.05
2018-09-19T10:32:01.163Z,24.05
2018-09-19T10:34:30.383Z,24.06
2018-09-19T10:36:58.951Z,24.14
2018-09-19T10:39:28.398Z,24.36
2018-09-19T10:41:57.641Z,24.60
2018-09-19T10:44:26.163Z,24.70
2018-09-19T10:46:55.674Z,24.81
2018-09-19T10:49:25.036Z,24.99
2018-09-19T10:51:53.630Z,25.00
2018-09-19T10:54:23.144Z,25.02
2018-09-19T10:56:52.483Z,24.90
2018-09-19T10:59:21.132Z,24.76
2018-09-19T11:01:50.144Z,24.61
2018-09-19T11:04:20.734Z,24.43
2018-09-19T11:06:49.426Z,24.20
2018-09-19T11:09:18.886Z,24.04
2018-09-19T11:11:48.142Z,23.98
2018-09-19T11:14:17.808Z,24.01
2018-09-19T11:16:46.809Z,24.19
2018-09-19T11:19:16.190Z,24.36
2018-09-19T11:21:45.457Z,24.54
2018-09-19T11:24:15.053Z,24.79
2018-09-19T11:26:44.511Z,24.87
2018-09-19T11:29:13.238Z,24.92
2018-09-19T11:31:42.510Z,25.15
2018-09-19T11:34:11.784Z,25.38
2018-09-19T11:36:40.265Z,25.56
2018-09-19T11:39:11.712Z,25.71
2018-09-19T11:41:41.205Z,25.80
2018-09-19T11:44:11.123Z,25.83
2018-09-19T11:46:40.296Z,25.84
2018-09-19T11:49:09.033Z,25.75
2018-09-19T11:51:38.057Z,25.68
2018-09-19T11:54:08.137Z,25.64
2018-09-19T11:56:37.696Z,25.73
2018-09-19T11:59:06.771Z,25.67
2018-09-19T12:01:36.400Z,25.65
2018-09-19T12:04:06.336Z,25.56
2018-09-19T12:06:35.438Z,25.50
2018-09-19T12:09:06.217Z,25.47
2018-09-19T12:11:35.798Z,25.39
2018-09-19T12:14:05.857Z,25.44
2018-09-19T12:16:34.887Z,25.47
2018-09-19T12:19:04.554Z,25.61
2018-09-19T12:21:33.376Z,25.80
2018-09-19T12:24:01.997Z,25.97
2018-09-19T12:26:31.103Z,25.99
2018-09-19T12:29:01.247Z,25.99
2018-09-19T12:31:29.823Z,26.22
2018-09-19T12:33:59.030Z,26.21
2018-09-19T12:36:28.598Z,26.17
2018-09-19T12:38:57.554Z,26.10
2018-09-19T12:41:26.865Z,26.13
2018-09-19T12:43:56.398Z,26.19
2018-09-19T12:46:24.922Z,26.17
2018-09-19T12:48:54.684Z,26.26
2018-09-19T12:51:23.793Z,26.41
2018-09-19T12:53:52.296Z,26.52
2018-09-19T12:56:21.283Z,26.58
2018-09-19T12:58:51.011Z,26.45
2018-09-19T13:01:19.932Z,26.32
2018-09-19T13:03:48.956Z,26.28
2018-09-19T13:06:18.176Z,26.31
2018-09-19T13:08:47.661Z,26.21
2018-09-19T13:11:16.280Z,26.25
2018-09-19T13:13:45.740Z,26.31
2018-09-19T13:16:18.545Z,26.33
2018-09-19T13:18:48.014Z,26.18
2018-09-19T13:21:16.944Z,26.09
2018-09-19T13:23:47.934Z,26.11
2018-09-19T13:26:16.750Z,26.20
2018-09-19T13:28:45.876Z,26.25
2018-09-19T13:31:16.150Z,26.27
2018-09-19T13:33:45.122Z,26.18
2018-09-19T13:36:14.009Z,26.19
2018-09-19T13:38:43.159Z,26.22
2018-09-19T13:41:12.406Z,26.31
2018-09-19T13:43:41.079Z,26.26
2018-09-19T13:46:10.821Z,26.25
2018-09-19T13:48:43.880Z,26.19
2018-09-19T13:51:17.298Z,26.06
2018-09-19T13:53:46.791Z,25.99
2018-09-19T13:56:15.823Z,26.11
2018-09-19T13:58:45.442Z,26.27
2018-09-19T14:01:15.927Z,26.31
2018-09-19T14:03:46.377Z,26.26
2018-09-19T14:06:15.756Z,26.19
2018-09-19T14:08:45.072Z,26.23
2018-09-19T14:11:14.988Z,26.19
2018-09-19T14:13:43.821Z,26.27
2018-09-19T14:16:12.941Z,26.40
2018-09-19T14:18:43.503Z,26.27
2018-09-19T14:21:12.039Z,26.33
2018-09-19T14:23:42.521Z,26.35
2018-09-19T14:26:12.170Z,26.38
2018-09-19T14:28:40.793Z,26.38
2018-09-19T14:31:10.376Z,26.35
2018-09-19T14:33:40.337Z,26.41
2018-09-19T14:36:08.895Z,26.44
2018-09-19T14:38:38.365Z,26.45
2018-09-19T14:41:07.794Z,26.41
2018-09-19T14:43:36.412Z,26.38
2018-09-19T14:46:06.522Z,26.35
2018-09-19T14:48:37.881Z,26.15
2018-09-19T14:51:07.197Z,26.26
2018-09-19T14:53:36.254Z,26.23
2018-09-19T14:56:07.324Z,26.24
2018-09-19T14:58:36.871Z,26.27
2018-09-19T15:01:06.539Z,26.20
2018-09-19T15:03:36.028Z,26.13
2018-09-19T15:06:05.178Z,26.10
2018-09-19T15:08:34.236Z,26.23
2018-09-19T15:11:02.988Z,26.36
2018-09-19T15:13:33.020Z,26.49
2018-09-19T15:16:02.158Z,26.51
2018-09-19T15:20:59.000Z,26.14
2018-09-19T15:23:29.005Z,26.04
2018-09-19T15:26:02.860Z,25.99
2018-09-19T15:28:34.187Z,25.93
2018-09-19T15:33:30.157Z,25.57
2018-09-19T15:36:00.290Z,25.49
2018-09-19T15:38:29.500Z,25.43
2018-09-19T15:40:58.511Z,25.43
2018-09-19T15:43:27.081Z,25.48
2018-09-19T15:45:56.924Z,25.47
2018-09-19T15:48:26.247Z,25.46
2018-09-19T15:50:54.878Z,25.35
2018-09-19T15:53:24.382Z,25.29
2018-09-19T15:55:53.416Z,25.28
2018-09-19T15:58:22.470Z,25.24
2018-09-19T16:00:51.172Z,25.20
2018-09-19T16:03:20.006Z,25.17
2018-09-19T16:05:49.378Z,25.11
2018-09-19T16:08:18.612Z,25.03
2018-09-19T16:10:47.983Z,24.99
2018-09-19T16:13:16.522Z,24.99
2018-09-19T16:15:46.238Z,24.97
2018-09-19T16:18:15.406Z,24.92
2018-09-19T16:20:44.848Z,24.85
2018-09-19T16:23:13.529Z,24.79
2018-09-19T16:25:42.172Z,24.75
2018-09-19T16:28:11.917Z,24.71
2018-09-19T16:30:41.288Z,24.69
2018-09-19T16:33:10.134Z,24.63
2018-09-19T16:35:38.709Z,24.58
2018-09-19T16:38:07.574Z,24.56
2018-09-19T16:40:39.633Z,24.52
2018-09-19T16:43:08.665Z,24.51
2018-09-19T16:45:37.322Z,24.48
2018-09-19T16:48:06.881Z,24.46
2018-09-19T16:50:36.292Z,24.46
2018-09-19T16:53:05.839Z,24.42
2018-09-19T16:55:34.449Z,24.39
2018-09-19T16:58:03.806Z,24.36
2018-09-19T17:00:32.878Z,24.36
2018-09-19T17:03:02.211Z,24.33
2018-09-19T17:05:32.210Z,24.32
2018-09-19T17:08:02.218Z,24.30
2018-09-19T17:10:31.833Z,24.28
2018-09-19T17:13:00.998Z,24.27
2018-09-19T17:15:29.693Z,24.26
2018-09-19T17:17:59.802Z,24.25
2018-09-19T17:20:28.893Z,24.21
2018-09-19T17:22:58.333Z,24.18
2018-09-19T17:25:27.471Z,24.14
2018-09-19T17:27:56.040Z,24.11
2018-09-19T17:30:25.458Z,24.05
2018-09-19T17:32:54.638Z,24.02
2018-09-19T17:35:24.883Z,23.97
2018-09-19T17:37:54.499Z,23.92
2018-09-19T17:40:24.170Z,23.89
2018-09-19T17:42:53.754Z,23.86
2018-09-19T17:45:22.412Z,23.80
2018-09-19T17:47:51.113Z,23.76
2018-09-19T17:50:20.409Z,23.70
2018-09-19T17:52:49.741Z,23.65
2018-09-19T17:55:19.129Z,23.59
2018-09-19T17:57:48.342Z,23.54
2018-09-19T18:00:17.149Z,23.52
2018-09-19T18:02:45.891Z,23.50
2018-09-19T18:05:14.939Z,23.45
2018-09-19T18:07:44.310Z,23.46
2018-09-19T18:10:13.480Z,23.42
2018-09-19T18:12:42.646Z,23.39
2018-09-19T18:15:11.412Z,23.38
2018-09-19T18:17:40.403Z,23.36
2018-09-19T18:20:09.724Z,23.35
2018-09-19T18:22:38.842Z,23.31
2018-09-19T18:25:08.529Z,23.29
2018-09-19T18:27:37.986Z,23.25
2018-09-19T18:30:07.670Z,23.19
2018-09-19T18:32:36.994Z,23.13
2018-09-19T18:35:06.590Z,23.08
2018-09-19T18:37:35.261Z,23.02
2018-09-19T18:40:04.506Z,22.99
2018-09-19T18:42:34.063Z,22.92
2018-09-19T18:45:03.570Z,22.88
2018-09-19T18:47:33.128Z,22.85
2018-09-19T18:50:02.564Z,22.81
2018-09-19T18:52:31.193Z,22.79
2018-09-19T18:54:59.997Z,22.76
2018-09-19T18:57:29.125Z,22.73
2018-09-19T18:59:58.612Z,22.70
2018-09-19T19:02:27.941Z,22.65
2018-09-19T19:04:57.597Z,22.63
2018-09-19T19:07:26.484Z,22.57
2018-09-19T19:09:55.148Z,22.53
2018-09-19T19:12:24.162Z,22.48
2018-09-19T19:14:53.627Z,22.43
2018-09-19T19:17:22.885Z,22.40
2018-09-19T19:19:52.260Z,22.33
2018-09-19T19:22:21.034Z,22.26
2018-09-19T19:24:50.390Z,22.24
2018-09-19T19:27:19.147Z,22.21
2018-09-19T19:29:47.729Z,22.15
2018-09-19T19:32:21.229Z,22.13
2018-09-19T19:34:50.775Z,22.08
2018-09-19T19:37:23.102Z,22.06
2018-09-19T19:39:53.789Z,22.06
2018-09-19T19:42:23.316Z,22.03
2018-09-19T19:44:52.895Z,22.01
2018-09-19T19:47:21.780Z,21.96
2018-09-19T19:49:51.044Z,21.94
2018-09-19T19:52:20.105Z,21.89
2018-09-19T19:54:49.604Z,21.87
2018-09-19T19:57:19.112Z,21.82
2018-09-19T19:59:47.992Z,21.77
2018-09-19T20:02:17.425Z,21.73
2018-09-19T20:04:46.822Z,21.69
2018-09-19T20:07:16.216Z,21.65
2018-09-19T20:09:45.133Z,21.63
2018-09-19T20:12:13.786Z,21.59
2018-09-19T20:14:42.400Z,21.56
2018-09-19T20:17:11.199Z,21.53
2018-09-19T20:19:40.274Z,21.48
2018-09-19T20:22:11.031Z,21.45
2018-09-19T20:24:40.767Z,21.42
2018-09-19T20:27:09.803Z,21.37
2018-09-19T20:29:38.393Z,21.32
2018-09-19T20:32:07.835Z,21.28
2018-09-19T20:34:37.172Z,21.25
2018-09-19T20:37:07.097Z,21.21
2018-09-19T20:39:35.815Z,21.18
2018-09-19T20:42:04.580Z,21.14
2018-09-19T20:44:34.070Z,21.10
2018-09-19T20:47:04.185Z,21.05
2018-09-19T20:49:33.468Z,21.00
2018-09-19T20:52:03.284Z,20.97
2018-09-19T20:54:32.613Z,20.95
2018-09-19T20:57:01.988Z,20.92
2018-09-19T20:59:31.556Z,20.89
2018-09-19T21:02:00.267Z,20.87
2018-09-19T21:04:29.986Z,20.87
2018-09-19T21:06:59.026Z,20.86
2018-09-19T21:09:29.105Z,20.84
2018-09-19T21:11:58.677Z,20.86
2018-09-19T21:14:28.395Z,20.85
2018-09-19T21:16:57.631Z,20.84
2018-09-19T21:19:26.889Z,20.83
2018-09-19T21:21:56.500Z,20.83
2018-09-19T21:24:25.028Z,20.80
2018-09-19T21:26:53.757Z,20.78
2018-09-19T21:29:23.446Z,20.75
2018-09-19T21:31:52.923Z,20.70
2018-09-19T21:34:22.732Z,20.69
2018-09-19T21:36:52.110Z,20.65
2018-09-19T21:39:22.076Z,20.63
2018-09-19T21:41:51.530Z,20.59
2018-09-19T21:44:21.321Z,20.56
2018-09-19T21:46:50.721Z,20.54
2018-09-19T21:49:19.363Z,20.50
2018-09-19T21:51:48.285Z,20.47
2018-09-19T21:54:18.332Z,20.44
2018-09-19T21:56:47.767Z,20.41
2018-09-19T21:59:17.537Z,20.40
2018-09-19T22:01:46.168Z,20.38
2018-09-19T22:04:14.922Z,20.35
2018-09-19T22:06:44.682Z,20.35
2018-09-19T22:09:14.016Z,20.30
2018-09-19T22:11:43.461Z,20.27
2018-09-19T22:14:12.207Z,20.24
2018-09-19T22:16:40.877Z,20.24
2018-09-19T22:19:10.524Z,20.22
2018-09-19T22:21:39.907Z,20.19
2018-09-19T22:24:10.025Z,20.16
2018-09-19T22:26:38.786Z,20.14
2018-09-19T22:29:08.379Z,20.12
2018-09-19T22:31:37.538Z,20.08
2018-09-19T22:34:06.665Z,20.06
2018-09-19T22:36:36.216Z,20.02
2018-09-19T22:39:07.320Z,20.00
2018-09-19T22:41:36.590Z,19.97
2018-09-19T22:44:06.942Z,19.96
2018-09-19T22:46:35.766Z,19.94
2018-09-19T22:49:04.367Z,19.91
2018-09-19T22:51:33.061Z,19.89
2018-09-19T22:54:01.729Z,19.87
2018-09-19T22:56:30.783Z,19.86
2018-09-19T22:59:01.471Z,19.85
2018-09-19T23:01:33.565Z,19.83
2018-09-19T23:04:03.273Z,19.80
2018-09-19T23:06:32.539Z,19.75
2018-09-19T23:09:02.221Z,19.71
2018-09-19T23:11:31.535Z,19.67
2018-09-19T23:14:00.515Z,19.64
2018-09-19T23:16:29.911Z,19.62
2018-09-19T23:18:59.067Z,19.60
2018-09-19T23:21:27.628Z,19.56
2018-09-19T23:23:56.516Z,19.53
2018-09-19T23:26:25.446Z,19.51
2018-09-19T23:28:54.794Z,19.47
2018-09-19T23:31:23.835Z,19.44
2018-09-19T23:33:53.266Z,19.41
2018-09-19T23:36:22.616Z,19.38
2018-09-19T23:38:51.342Z,19.35
2018-09-19T23:41:20.119Z,19.34
2018-09-19T23:43:49.643Z,19.32
2018-09-19T23:46:18.702Z,19.31
2018-09-19T23:48:47.953Z,19.27
2018-09-19T23:51:17.433Z,19.25
2018-09-19T23:53:46.511Z,19.20
2018-09-19T23:56:15.095Z,19.19
2018-09-19T23:58:44.435Z,19.15
